Terminal Aerodrome Forecast
Issued by NWS Shreveport, LA

Home | Current Version | Previous Version | Text Only | Print | Product List | Glossary On
Versions: 1 2 3 4 5 6 7 8 9 10 11 12 13 14
000
FTUS44 KSHV 172300
TAFTXK
TAF
KTXK 172339Z 1800/1824 VRB04KT P6SM BKN100
     FM181300 36005KT P6SM SCT100
     FM181500 01006KT P6SM FEW250
     FM181800 03006KT P6SM SCT040=

USA.gov is the U.S. government's official web portal to all federal, state and local government web resources and services.